Ursvikens väder

stationens status  
Klimatstatistik

Klimatstatistik


Report for 2010 May
                   Monthly Climatological Summary for maj 2010

Name: Ursviken   City:    State: 
Elevation: 35 m  Lat: N 64° 42' 41"   Lon: E 021° 10' 44"

                  Temperature (°C), Rain (mm), Wind Speed (m/s)

                                      Heat  Cool        Avg
    Mean                              Deg   Deg         Wind                 Dom
Day Temp  High   Time   Low    Time   Days  Days  Rain  Speed High   Time    Dir
----------------------------------------------------------------------------------
 1   3,0   4,8   00:00   1,1   00:00  15,3   0,0  11,4   0,9   5,1   00:00   ---
 2   4,4   7,6   00:00   1,3   00:00   4,7   0,2   0,6   1,2   7,1   00:00   SSV
 3   4,8  11,3   00:00  -1,6   00:00  13,4   0,0   0,0   1,1   4,8   00:00   ---
 4   3,0  10,0   00:00  -4,1   00:00  15,3   0,0   0,0   0,7   3,7   00:00   ---
 5   3,1  10,3   00:00  -4,1   00:00  15,6   0,0   0,0   0,5   4,8   00:00    NV
 6   3,2  10,1   00:00  -3,8   00:00  15,1   0,0   0,0   0,7   4,1   00:00   ---
 7   2,3   8,7   00:00  -4,2   00:00  16,0   0,0   0,0   0,7   4,4   00:00   ---
 8   3,0  10,4   00:00  -4,4   00:00  18,8   0,0   0,0   0,7   4,4   00:00    SV
 9   5,5  12,2   00:00  -1,2   00:00  12,8   0,0   0,0   0,6   5,1   00:00   ---
10   5,9  11,0   00:00   0,8   00:00  12,4   0,0   0,0   0,6   5,1   00:00   ---
11   6,9  13,3   00:00   0,6   00:00  11,3   0,1   0,0   1,0   6,8   00:00   ---
12   5,3  12,4   00:00  -1,9   00:00  13,0   0,0   0,0   0,7   4,1   00:00   ---
13   7,8  13,2   00:00   2,5   00:00  10,4   0,0   1,8   1,1   6,1   00:00   ---
14  11,7  18,0   00:00   5,4   00:00   6,6   0,0   0,6   0,8   3,4   00:00   ---
15  13,9  20,1   00:00   7,8   00:00   4,3   0,0   1,8   1,0   4,8   00:00   ---
16  14,5  19,9   00:00   9,1   00:00   3,8   0,0   0,0   1,1   5,1   00:00   ---
17  15,1  20,0   00:00  10,2   00:00   3,2   0,0   0,0   1,3   5,1   00:00   ---
18  14,4  19,2   00:00   9,7   00:00   3,8   0,0   0,0   1,0   4,8   00:00   ---
19  16,6  23,1   00:00  10,1   00:00   1,7   0,0   0,0   1,1   5,8   00:00   ---
20  17,0  26,7   00:00   7,2   00:00   1,3   0,0   0,0   0,6   4,1   00:00   ---
21  14,6  20,5   00:00   8,8   00:00   3,6   0,0   0,0   1,0   4,8   00:00   ---
22  11,6  17,8   00:00   5,3   00:00   6,7   0,0   0,0   0,5   4,4   00:00   ---
23  14,1  19,2   00:00   9,1   00:00   4,1   0,0   0,0   0,8   5,1   00:00   ---
24   9,4  12,4   00:00   6,5   00:00   8,8   0,0   6,3   1,4   6,8   00:00   ---
25   8,9  12,1   00:00   5,8   00:00   9,3   0,0   8,7   1,0   4,8   00:00   ---
26   8,2  11,3   00:00   5,1   00:00  10,1   0,3   3,0   1,2   5,1   00:00   ---
27  10,3  14,4   00:00   6,1   00:00   8,0   0,0   0,0   2,1   8,2   00:00   ---
28   9,9  13,1   00:00   6,8   00:00   8,3   0,0   0,6   1,1   5,8   00:00   ---
29   9,1  12,1   00:00   6,0   00:00   9,2   0,0   8,4   0,4   4,1   00:00   ---
30  12,6  18,7   00:00   6,4   00:00   5,7   0,0   0,6   0,4   3,1   00:00   ---
31  13,4  20,2   00:00   6,6   00:00   4,2   0,0   0,0   1,0   4,4   00:00   SSV
----------------------------------------------------------------------------------
     9,1  26,7    20    -4,4     8   277,8   0,6  43,8   0,9   8,2    27       N

Max >=  20,0:  6
Max <=   0,0:  0
Min <=   0,0:  8
Min <= -20,0:  0
Max Rain: 11,4 on day 1
Days of Rain: 11 (>= 0,2 mm)  5 (>= 2,0 mm)  0 (>= 20,0 mm)
Heat Base: 18,3  Cool Base: 18,3  Method: Integration
 
: nu: mätare: diagram: idag och igår: månad och år: rekord: månadsrekord: statistik:
Startsidan Ursviken Örviken

Välkommen till Lundströms väder
Väderstationen som används är en WH1080, Uppdaterad 2024-06-24 11:40:01
skapad av Cumulus v1.9.4 (10992)
Forum
sedan 22 dec 2012